Time;durP1;ratioP1;P1;durP2;ratioP2;P2;SDS_P1;SDS_P2;PMS_P1;PMS_P2;Temp;Humidity;BMP_temperature;BMP_pressure;BME280_temperature;BME280_humidity;BME280_pressure;Samples;Min_cycle;Max_cycle;Signal;HPM_P1;HPM_P2
2022/06/08 00:01:52;;;;;;;11.73;8.98;;;;;;;20.41;64.27;100566.19;4990185;28;20475;-52
2022/06/08 00:04:22;;;;;;;10.77;7.85;;;;;;;20.41;64.14;100566.19;4995367;28;20054;-51
2022/06/08 00:06:51;;;;;;;10.45;8.20;;;;;;;20.42;64.12;100567.03;4995441;28;20050;-55
2022/06/08 00:09:18;;;;;;;9.60;7.75;;;;;;;20.40;64.16;100563.63;4987185;28;20061;-52
2022/06/08 00:11:45;;;;;;;10.93;8.57;;;;;;;20.38;64.01;100570.75;4987624;28;20128;-54
2022/06/08 00:14:12;;;;;;;11.30;8.43;;;;;;;20.35;64.26;100568.25;4994639;28;20062;-54
2022/06/08 00:16:40;;;;;;;11.73;8.45;;;;;;;20.33;64.44;100568.34;4994862;28;20058;-55
2022/06/08 00:19:07;;;;;;;10.55;7.55;;;;;;;20.33;64.72;100564.84;4981109;28;20055;-55
2022/06/08 00:21:34;;;;;;;11.75;8.57;;;;;;;20.34;64.76;100561.28;4985784;28;20069;-54
2022/06/08 00:24:02;;;;;;;10.50;8.43;;;;;;;20.33;64.54;100562.22;4993102;28;20062;-53
2022/06/08 00:26:29;;;;;;;12.50;9.25;;;;;;;20.31;64.23;100558.81;4981967;28;20047;-51
2022/06/08 00:28:56;;;;;;;12.20;9.32;;;;;;;20.30;63.99;100562.38;4977211;28;20468;-52
2022/06/08 00:31:22;;;;;;;10.45;8.60;;;;;;;20.28;63.90;100565.06;4985081;28;20047;-54
2022/06/08 00:33:49;;;;;;;11.75;9.68;;;;;;;20.28;63.87;100564.22;4986857;28;20054;-53
2022/06/08 00:36:16;;;;;;;10.75;8.50;;;;;;;20.29;63.86;100566.78;4994885;28;20117;-55
2022/06/08 00:38:43;;;;;;;11.98;8.52;;;;;;;20.30;64.09;100563.22;4994745;28;20066;-53
2022/06/08 00:41:27;;;;;;;10.68;8.70;;;;;;;20.30;64.18;100562.38;4994571;28;20443;-52
2022/06/08 00:43:55;;;;;;;10.15;8.10;;;;;;;20.29;64.31;100560.66;4989017;28;20372;-54
2022/06/08 00:46:22;;;;;;;11.20;7.88;;;;;;;20.26;64.34;100560.81;4992968;28;20080;-52
2022/06/08 00:48:53;;;;;;;12.07;8.52;;;;;;;20.25;64.26;100564.38;4987183;28;20060;-55
2022/06/08 00:51:20;;;;;;;10.00;7.30;;;;;;;20.22;64.21;100557.47;4992837;28;20806;-55
2022/06/08 00:53:53;;;;;;;11.90;8.82;;;;;;;20.21;64.27;100557.56;4983235;28;20055;-54
2022/06/08 00:56:26;;;;;;;11.02;8.20;;;;;;;20.20;64.17;100555.84;4986556;28;20509;-53
2022/06/08 00:58:57;;;;;;;10.52;8.00;;;;;;;20.17;64.36;100551.59;4983122;28;20054;-52
2022/06/08 01:01:24;;;;;;;10.35;8.38;;;;;;;20.14;64.43;100552.63;4977887;28;20046;-53
2022/06/08 01:03:50;;;;;;;10.52;8.43;;;;;;;20.13;64.53;100550.91;4993105;28;20054;-53
2022/06/08 01:06:22;;;;;;;10.10;8.43;;;;;;;20.13;64.61;100550.91;4984964;28;20060;-54
2022/06/08 01:08:52;;;;;;;12.00;8.45;;;;;;;20.12;64.73;100543.94;4985580;28;20054;-54
2022/06/08 01:11:25;;;;;;;11.65;8.88;;;;;;;20.12;64.71;100548.34;4974945;28;20055;-51
2022/06/08 01:13:55;;;;;;;12.45;9.13;;;;;;;20.11;64.95;100541.38;4974204;28;20066;-51
2022/06/08 01:16:22;;;;;;;11.35;9.55;;;;;;;20.10;65.10;100540.53;4974379;28;20058;-54
2022/06/08 01:18:49;;;;;;;11.70;9.70;;;;;;;20.10;65.37;100545.81;4976823;28;20051;-54
2022/06/08 01:22:01;;;;;;;11.68;9.52;;;;;;;20.11;65.55;100547.50;4978693;28;20575;-54
2022/06/08 01:24:30;;;;;;;12.38;9.27;;;;;;;20.07;65.58;100537.22;4939572;28;20476;-51
2022/06/08 01:27:30;;;;;;;13.93;10.57;;;;;;;20.06;65.73;100533.72;4974221;28;20057;-55
2022/06/08 01:30:15;;;;;;;12.25;9.27;;;;;;;20.05;65.61;100534.66;4973778;28;20061;-53
2022/06/08 01:33:22;;;;;;;11.93;9.82;;;;;;;20.05;65.73;100532.03;4991512;28;20104;-51
2022/06/08 01:35:59;;;;;;;12.77;9.95;;;;;;;20.04;65.88;100532.97;4989555;28;20104;-55
2022/06/08 01:38:35;;;;;;;13.48;9.85;;;;;;;20.04;65.97;100530.34;4980733;28;20109;-55
2022/06/08 01:41:28;;;;;;;10.63;9.07;;;;;;;20.05;65.82;100525.91;4974242;28;20051;-52
2022/06/08 01:44:09;;;;;;;13.18;10.80;;;;;;;20.03;65.81;100536.53;4989317;28;20502;-53
2022/06/08 01:46:45;;;;;;;13.60;10.27;;;;;;;20.04;65.95;100530.34;4974077;28;20057;-51
2022/06/08 01:49:23;;;;;;;11.93;9.35;;;;;;;20.05;66.07;100532.03;4978425;28;20050;-52
2022/06/08 01:52:08;;;;;;;13.10;10.80;;;;;;;20.06;66.23;100530.25;4996815;28;20054;-55
2022/06/08 01:54:53;;;;;;;13.23;10.63;;;;;;;20.05;66.28;100525.91;4992326;28;20054;-52
2022/06/08 01:57:33;;;;;;;13.32;9.48;;;;;;;20.04;66.25;100525.06;4974063;28;20217;-53
2022/06/08 02:00:05;;;;;;;12.70;10.50;;;;;;;20.03;66.35;100522.50;4973690;28;20121;-52
2022/06/08 02:02:40;;;;;;;12.48;10.18;;;;;;;20.02;66.45;100531.34;4985443;28;20117;-55
2022/06/08 02:05:14;;;;;;;14.60;11.13;;;;;;;19.99;66.46;100521.81;4989023;28;20050;-55
2022/06/08 02:07:44;;;;;;;11.98;10.18;;;;;;;19.97;66.66;100528.94;4983000;28;20050;-53
2022/06/08 02:10:20;;;;;;;15.27;11.35;;;;;;;19.97;66.72;100523.69;4988984;28;20410;-52
2022/06/08 02:12:55;;;;;;;13.52;11.27;;;;;;;19.98;66.73;100519.28;4972855;28;20125;-51
2022/06/08 02:15:28;;;;;;;13.05;10.63;;;;;;;19.96;66.76;100521.13;4973503;28;20105;-53
2022/06/08 02:17:57;;;;;;;14.38;11.07;;;;;;;19.95;66.84;100522.91;4984557;28;20091;-53
2022/06/08 02:20:31;;;;;;;13.05;9.77;;;;;;;19.94;66.90;100517.72;4974214;28;20109;-51
2022/06/08 02:23:03;;;;;;;13.75;11.52;;;;;;;19.93;67.13;100516.03;4975876;28;20696;-54
2022/06/08 02:25:34;;;;;;;14.43;11.25;;;;;;;19.93;67.23;100513.38;4982496;28;20054;-54
2022/06/08 02:28:07;;;;;;;14.02;11.38;;;;;;;19.93;67.20;100521.28;4982894;28;20434;-53
2022/06/08 02:30:39;;;;;;;15.20;12.32;;;;;;;19.93;67.25;100516.88;4983229;28;20058;-51
2022/06/08 02:35:58;;;;;;;11.75;10.38;;;;;;;19.89;67.31;100515.31;4993104;28;20069;-51
2022/06/08 02:38:34;;;;;;;16.13;12.00;;;;;;;19.90;67.47;100522.28;4992826;28;20426;-52
2022/06/08 02:41:03;;;;;;;17.67;10.40;;;;;;;19.90;67.45;100510.91;4994971;28;20116;-51
2022/06/08 02:43:33;;;;;;;17.92;13.55;;;;;;;19.90;67.50;100516.19;4997134;28;20129;-51
2022/06/08 02:46:10;;;;;;;12.85;10.45;;;;;;;19.90;67.69;100511.78;4996755;28;20046;-51
2022/06/08 02:48:37;;;;;;;18.05;13.57;;;;;;;19.90;67.78;100513.53;4993572;28;20065;-51
2022/06/08 02:51:04;;;;;;;17.40;11.95;;;;;;;19.89;67.76;100511.84;4991910;28;20054;-51
2022/06/08 02:53:59;;;;;;;15.00;11.63;;;;;;;19.89;67.58;100512.69;4980773;28;20126;-51
2022/06/08 02:56:46;;;;;;;13.48;11.48;;;;;;;19.89;67.84;100514.47;4974484;28;20050;-51
2022/06/08 02:59:20;;;;;;;13.27;11.40;;;;;;;19.87;67.67;100509.28;4996874;28;20101;-50
2022/06/08 03:01:52;;;;;;;13.77;10.00;;;;;;;19.87;67.82;100506.66;4989563;28;20097;-51
2022/06/08 03:04:23;;;;;;;14.98;10.80;;;;;;;19.90;67.90;100503.88;4981772;28;20610;-50
2022/06/08 03:06:53;;;;;;;15.02;11.70;;;;;;;19.92;67.88;100507.28;4996958;28;20120;-52
2022/06/08 03:09:23;;;;;;;15.65;11.43;;;;;;;19.93;67.78;100506.34;4981558;28;20042;-51
2022/06/08 03:11:55;;;;;;;12.70;10.40;;;;;;;19.91;67.80;100502.94;4976988;28;20055;-51
2022/06/08 03:14:24;;;;;;;14.25;11.02;;;;;;;19.90;67.90;100506.50;4976853;28;20134;-53
2022/06/08 03:16:57;;;;;;;16.48;11.55;;;;;;;19.93;67.99;100505.50;4976656;28;20498;-53
2022/06/08 03:19:25;;;;;;;15.13;11.73;;;;;;;19.92;67.95;100502.03;4976951;28;20361;-55
2022/06/08 03:21:51;;;;;;;14.20;11.40;;;;;;;19.93;68.06;100506.34;4977202;28;20440;-52
2022/06/08 03:24:18;;;;;;;13.85;11.40;;;;;;;19.93;68.23;100511.59;4992535;28;20438;-52
2022/06/08 03:26:48;;;;;;;15.93;13.18;;;;;;;19.93;68.14;100508.97;4986120;28;20058;-55
2022/06/08 03:29:16;;;;;;;16.30;12.38;;;;;;;19.93;68.13;100506.34;4987706;28;20051;-51
2022/06/08 03:31:44;;;;;;;14.50;10.88;;;;;;;19.93;68.30;100505.50;4979660;28;20046;-51
2022/06/08 03:34:11;;;;;;;15.40;11.60;;;;;;;19.92;68.36;100509.91;4988717;28;20480;-51
2022/06/08 03:36:38;;;;;;;15.35;12.50;;;;;;;19.91;68.49;100502.94;4993879;28;20058;-53
2022/06/08 03:39:06;;;;;;;14.30;11.63;;;;;;;19.91;68.57;100508.22;4994715;28;20054;-51
2022/06/08 03:41:33;;;;;;;17.85;12.48;;;;;;;19.90;68.66;100505.66;4977068;28;20058;-50
2022/06/08 03:44:00;;;;;;;18.33;13.60;;;;;;;19.90;68.72;100503.88;4988485;28;20050;-53
2022/06/08 03:46:29;;;;;;;16.15;11.88;;;;;;;19.90;68.75;100509.13;4995628;28;20050;-52
2022/06/08 03:48:57;;;;;;;17.30;12.57;;;;;;;19.91;68.84;100512.63;4995753;28;20531;-51
2022/06/08 03:51:25;;;;;;;15.57;11.50;;;;;;;19.91;69.01;100510.84;4995242;28;20476;-55
2022/06/08 03:53:55;;;;;;;15.65;12.00;;;;;;;19.93;69.07;100506.34;4995802;28;20108;-53
2022/06/08 03:56:24;;;;;;;18.15;12.93;;;;;;;19.93;69.03;100516.88;4995595;28;20113;-54
2022/06/08 03:58:52;;;;;;;14.50;11.25;;;;;;;19.95;69.04;100515.00;4989126;28;20105;-51
2022/06/08 04:01:19;;;;;;;13.63;11.20;;;;;;;19.96;69.08;100516.72;4983533;28;20133;-54
2022/06/08 04:03:47;;;;;;;16.33;12.27;;;;;;;19.98;68.89;100514.00;4995230;28;20109;-54
2022/06/08 04:06:15;;;;;;;16.30;12.23;;;;;;;20.00;68.85;100514.78;4975859;28;20485;-51
2022/06/08 04:08:42;;;;;;;18.30;12.95;;;;;;;20.01;68.91;100517.34;4975691;28;20054;-52
2022/06/08 04:11:09;;;;;;;18.70;12.77;;;;;;;20.02;68.79;100516.41;4976430;28;20078;-55
2022/06/08 04:13:36;;;;;;;15.77;11.70;;;;;;;20.04;68.80;100527.69;4977161;28;20160;-54
2022/06/08 04:16:03;;;;;;;21.88;13.10;;;;;;;20.06;68.87;100525.84;4990463;28;20463;-50
2022/06/08 04:18:31;;;;;;;18.08;12.18;;;;;;;20.06;68.89;100517.94;4982106;28;20082;-53
2022/06/08 04:21:01;;;;;;;19.33;12.95;;;;;;;20.06;68.97;100520.56;4994184;28;20054;-53
2022/06/08 04:23:32;;;;;;;21.02;13.63;;;;;;;20.08;68.93;100523.97;4995113;28;20620;-51
2022/06/08 04:26:00;;;;;;;27.75;15.07;;;;;;;20.11;68.87;100517.72;4994569;28;20054;-51
2022/06/08 04:28:27;;;;;;;24.15;15.50;;;;;;;20.13;68.83;100524.59;4995073;28;20050;-54
2022/06/08 04:30:54;;;;;;;25.13;16.13;;;;;;;20.15;68.65;100525.38;4987020;28;20108;-53
2022/06/08 04:33:21;;;;;;;26.48;16.85;;;;;;;20.21;68.36;100531.25;4981067;28;20713;-51
2022/06/08 04:35:48;;;;;;;34.35;19.52;;;;;;;20.25;68.54;100522.25;4995140;28;20070;-50
2022/06/08 04:38:16;;;;;;;23.55;15.40;;;;;;;20.29;68.08;100529.94;4994779;28;20062;-51
2022/06/08 04:40:45;;;;;;;23.00;14.23;;;;;;;20.34;67.99;100527.06;4994654;28;20062;-50
2022/06/08 04:43:12;;;;;;;18.75;12.18;;;;;;;20.38;67.63;100528.63;4994989;28;20095;-51
2022/06/08 04:45:39;;;;;;;12.27;9.65;;;;;;;20.44;67.30;100523.06;4995198;28;20106;-53
2022/06/08 04:48:08;;;;;;;11.88;8.15;;;;;;;20.50;66.76;100517.47;4988662;28;20051;-49
2022/06/08 04:50:35;;;;;;;11.23;8.43;;;;;;;20.58;66.41;100515.28;4994863;28;20113;-51
2022/06/08 04:53:02;;;;;;;11.48;8.27;;;;;;;20.70;66.07;100519.88;4984474;28;20062;-50
2022/06/08 04:55:29;;;;;;;12.68;8.75;;;;;;;20.86;65.58;100519.09;4981355;28;20547;-50
2022/06/08 04:57:57;;;;;;;11.18;7.80;;;;;;;21.01;64.84;100519.09;4987836;28;20050;-49
2022/06/08 05:00:24;;;;;;;11.77;7.53;;;;;;;21.20;64.24;100513.66;4982982;28;20093;-50
2022/06/08 05:02:52;;;;;;;9.15;6.95;;;;;;;21.41;63.88;100509.00;4987401;28;20053;-52
2022/06/08 05:05:22;;;;;;;9.02;6.43;;;;;;;21.65;62.73;100514.66;4987869;28;20058;-49
2022/06/08 05:07:49;;;;;;;10.30;6.60;;;;;;;21.89;61.83;100513.25;4979731;28;20065;-51
2022/06/08 05:10:17;;;;;;;9.23;5.30;;;;;;;22.09;61.12;100508.59;4980052;28;20467;-52
2022/06/08 05:12:45;;;;;;;7.15;5.68;;;;;;;22.31;60.44;100509.00;4975004;28;20129;-50
2022/06/08 05:15:14;;;;;;;7.47;5.78;;;;;;;;;;4978540;28;20046;-50
2022/06/08 05:17:41;;;;;;;8.65;6.32;;;;;;;22.65;59.11;100513.94;4994001;28;20112;-51
2022/06/08 05:20:10;;;;;;;9.25;6.03;;;;;;;22.79;58.49;100509.59;4994054;28;20058;-50
2022/06/08 05:22:37;;;;;;;7.45;6.43;;;;;;;22.92;58.17;100502.66;4990347;28;20109;-52
2022/06/08 05:25:06;;;;;;;17.90;8.10;;;;;;;23.01;58.02;100502.06;4975095;28;20373;-51
2022/06/08 05:27:33;;;;;;;14.40;6.00;;;;;;;23.08;57.47;100498.06;4985635;28;20054;-51
2022/06/08 05:29:59;;;;;;;8.68;5.78;;;;;;;23.17;57.28;100502.78;4994300;28;20104;-52
2022/06/08 05:32:28;;;;;;;9.90;6.10;;;;;;;23.26;57.08;100494.25;4994245;28;20064;-52
2022/06/08 05:34:55;;;;;;;8.80;5.78;;;;;;;23.33;56.92;100499.97;4994198;28;20054;-52
2022/06/08 05:37:23;;;;;;;9.25;5.15;;;;;;;23.41;56.75;100496.84;4994196;28;20065;-50
2022/06/08 05:39:50;;;;;;;7.88;5.70;;;;;;;23.49;56.63;100494.56;4994230;28;20054;-54
2022/06/08 05:42:17;;;;;;;9.60;5.80;;;;;;;23.55;56.09;100497.69;4993598;28;20050;-52
2022/06/08 05:44:43;;;;;;;10.25;5.18;;;;;;;23.64;56.10;100488.28;4993945;28;20116;-51
2022/06/08 05:47:10;;;;;;;14.75;6.60;;;;;;;23.74;55.65;100499.94;4993934;28;20066;-51
2022/06/08 05:49:40;;;;;;;14.10;6.50;;;;;;;23.81;55.45;100500.38;4993683;28;20042;-50
2022/06/08 05:52:07;;;;;;;21.00;7.13;;;;;;;23.90;55.36;100503.25;4993828;28;20050;-53
2022/06/08 05:54:34;;;;;;;8.05;5.32;;;;;;;24.00;55.14;100506.16;4990131;28;20054;-54
2022/06/08 05:57:01;;;;;;;10.35;6.18;;;;;;;24.12;54.84;100499.16;4990302;28;20061;-54
2022/06/08 05:59:30;;;;;;;6.22;5.30;;;;;;;24.25;54.42;100494.72;4989359;28;20113;-54
2022/06/08 06:01:57;;;;;;;7.63;5.25;;;;;;;24.40;54.10;100506.09;4982031;28;20050;-53
2022/06/08 06:04:24;;;;;;;6.40;5.30;;;;;;;24.53;53.62;100499.84;4984981;28;20498;-51
2022/06/08 06:06:52;;;;;;;10.93;5.75;;;;;;;24.65;53.35;100502.59;4982132;28;20050;-52
2022/06/08 06:09:21;;;;;;;9.88;5.57;;;;;;;24.86;52.81;100503.72;4974238;28;20057;-51
2022/06/08 06:11:49;;;;;;;6.78;5.25;;;;;;;25.08;51.94;100501.25;4985501;28;20408;-50
2022/06/08 06:14:16;;;;;;;7.53;5.05;;;;;;;25.35;51.24;100497.53;4993432;28;20407;-51
2022/06/08 06:16:43;;;;;;;7.57;4.70;;;;;;;25.62;50.76;100492.88;4982325;28;20373;-53
2022/06/08 06:19:10;;;;;;;7.15;4.43;;;;;;;25.91;49.63;100492.50;4993496;28;20543;-51
2022/06/08 06:21:37;;;;;;;5.32;4.28;;;;;;;26.16;49.13;100497.66;4985804;28;20057;-51
2022/06/08 06:24:06;;;;;;;10.88;4.47;;;;;;;26.45;48.46;100492.75;4977017;28;20345;-52
2022/06/08 06:26:33;;;;;;;9.55;4.78;;;;;;;26.72;47.69;100493.25;4974578;28;20059;-51
2022/06/08 06:29:00;;;;;;;5.70;4.32;;;;;;;26.89;46.99;100502.53;4980106;28;20420;-51
2022/06/08 06:31:31;;;;;;;12.48;5.18;;;;;;;27.01;46.55;100501.56;4978311;28;20813;-52
2022/06/08 06:33:58;;;;;;;6.30;4.20;;;;;;;27.11;46.40;100492.88;4983271;28;20058;-51
2022/06/08 06:36:25;;;;;;;8.15;4.65;;;;;;;27.11;45.84;100498.19;4989486;28;20070;-51
2022/06/08 06:38:52;;;;;;;8.75;4.78;;;;;;;27.07;46.09;100496.75;4993533;28;20055;-51
2022/06/08 06:41:21;;;;;;;6.22;4.32;;;;;;;27.05;46.65;100494.19;4993765;28;20108;-51
2022/06/08 06:43:48;;;;;;;11.45;5.10;;;;;;;27.06;46.59;100505.69;4993430;28;20054;-52
2022/06/08 06:46:15;;;;;;;6.72;5.13;;;;;;;26.97;46.54;100502.75;4993210;28;20050;-53
2022/06/08 06:48:43;;;;;;;8.52;4.60;;;;;;;26.85;47.30;100494.91;4993389;28;20053;-53
2022/06/08 06:51:11;;;;;;;7.22;4.75;;;;;;;26.71;47.02;100498.69;4993950;28;20065;-54
2022/06/08 06:53:38;;;;;;;6.40;4.78;;;;;;;26.58;47.37;100503.28;4993447;28;20498;-51
2022/06/08 06:56:06;;;;;;;6.10;4.85;;;;;;;26.44;47.57;100493.72;4993921;28;20054;-54
2022/06/08 06:58:34;;;;;;;10.05;4.40;;;;;;;26.28;47.53;100488.72;4993315;28;20046;-52
2022/06/08 07:01:01;;;;;;;7.15;4.95;;;;;;;26.17;47.91;100491.38;4993256;28;20373;-52
2022/06/08 07:03:29;;;;;;;6.50;4.95;;;;;;;26.06;48.06;100486.03;4993700;28;20054;-53
2022/06/08 07:05:56;;;;;;;6.53;4.90;;;;;;;25.99;48.58;100484.78;4988355;28;20153;-52
2022/06/08 07:08:24;;;;;;;8.35;4.88;;;;;;;25.91;48.80;100485.38;4989808;28;20082;-50
2022/06/08 07:13:31;;;;;;;7.43;5.10;;;;;;;25.82;48.87;100478.13;4992082;28;20133;-53
2022/06/08 07:15:59;;;;;;;9.27;5.45;;;;;;;25.73;49.41;100466.38;4993381;28;20050;-54
2022/06/08 07:18:26;;;;;;;45.83;7.65;;;;;;;25.63;49.76;100478.63;4988339;28;20149;-55
2022/06/08 07:20:53;;;;;;;8.13;6.15;;;;;;;25.54;49.90;100474.00;4985001;28;20117;-52
2022/06/08 07:23:20;;;;;;;5.70;5.00;;;;;;;25.45;49.89;100477.31;4985976;28;20479;-50
2022/06/08 07:25:47;;;;;;;7.18;5.95;;;;;;;25.39;50.13;100480.44;4993328;28;20074;-52
2022/06/08 07:28:14;;;;;;;79.20;11.60;;;;;;;25.39;50.04;100488.41;4996550;28;20115;-54
2022/06/08 07:30:41;;;;;;;10.38;7.47;;;;;;;25.44;50.22;100496.88;4991717;28;20051;-51
2022/06/08 07:33:09;;;;;;;10.48;8.02;;;;;;;25.43;49.91;100490.72;4984046;28;20452;-51
2022/06/08 07:35:36;;;;;;;11.43;8.40;;;;;;;25.39;50.87;100488.41;4986835;28;20116;-51
2022/06/08 07:38:02;;;;;;;11.85;9.20;;;;;;;25.35;51.21;100487.78;4977108;28;20460;-51
2022/06/08 07:40:29;;;;;;;12.93;9.15;;;;;;;25.27;51.70;100490.16;4976943;28;20051;-53
2022/06/08 07:42:56;;;;;;;11.50;8.57;;;;;;;25.16;52.08;100487.44;4991492;28;20065;-52
2022/06/08 07:45:23;;;;;;;8.32;6.95;;;;;;;25.08;52.07;100485.34;4996439;28;20054;-52
2022/06/08 07:50:35;;;;;;;12.02;7.70;;;;;;;24.94;52.22;100488.09;4992564;28;20048;-53
2022/06/08 07:53:02;;;;;;;47.30;9.73;;;;;;;24.90;52.40;100486.63;4991884;28;20141;-52
2022/06/08 07:55:29;;;;;;;16.17;7.70;;;;;;;24.91;52.78;100483.00;4982723;28;20050;-53
2022/06/08 07:57:56;;;;;;;11.30;8.27;;;;;;;24.98;52.64;100483.47;4977201;28;20432;-52
2022/06/08 08:00:23;;;;;;;11.43;8.25;;;;;;;25.03;52.63;100476.88;4990933;28;20054;-53
2022/06/08 08:02:49;;;;;;;10.73;8.55;;;;;;;25.06;52.67;100476.66;4990878;28;20460;-54
2022/06/08 08:05:18;;;;;;;16.60;7.68;;;;;;;25.01;52.63;100484.09;4996088;28;20663;-51
2022/06/08 08:07:46;;;;;;;10.70;6.97;;;;;;;24.96;52.64;100475.56;4996087;28;20050;-54
2022/06/08 08:10:18;;;;;;;8.60;7.18;;;;;;;24.98;52.76;100489.63;4989672;28;20466;-54
2022/06/08 08:12:46;;;;;;;9.65;6.68;;;;;;;25.00;52.71;100487.72;4977053;28;20624;-51
2022/06/08 08:15:13;;;;;;;14.10;7.05;;;;;;;25.05;52.49;100488.22;4976834;28;20050;-54
2022/06/08 08:17:41;;;;;;;52.85;9.13;;;;;;;25.11;52.22;100490.44;4976526;28;20047;-51
2022/06/08 08:20:09;;;;;;;8.75;7.00;;;;;;;25.12;52.31;100486.81;4976250;28;20098;-50
2022/06/08 08:22:36;;;;;;;10.40;7.20;;;;;;;25.13;52.22;100488.50;4982781;28;20058;-51
2022/06/08 08:25:04;;;;;;;9.50;7.07;;;;;;;25.14;52.55;100492.00;4990023;28;20066;-51
2022/06/08 08:27:31;;;;;;;27.10;8.07;;;;;;;25.11;52.50;100490.44;4990142;28;20471;-51
2022/06/08 08:29:58;;;;;;;10.15;6.45;;;;;;;25.13;52.35;100493.81;4995436;28;20054;-51
2022/06/08 08:32:25;;;;;;;8.30;6.97;;;;;;;25.11;52.28;100490.44;4995417;28;20054;-53
2022/06/08 08:34:52;;;;;;;9.75;7.07;;;;;;;25.16;52.50;100498.06;4995442;28;20058;-54
2022/06/08 08:37:19;;;;;;;8.60;6.72;;;;;;;25.24;52.57;100494.84;4995822;28;20051;-54
2022/06/08 08:39:45;;;;;;;10.15;7.28;;;;;;;25.36;51.92;100491.28;4994954;28;20054;-51
2022/06/08 08:42:22;;;;;;;7.00;6.25;;;;;;;25.44;51.78;100487.09;4995415;28;20112;-52
2022/06/08 08:44:52;;;;;;;14.90;6.65;;;;;;;25.59;51.28;100486.94;4991671;28;20050;-51
2022/06/08 08:47:32;;;;;;;9.32;5.97;;;;;;;25.70;51.12;100487.00;4977059;28;20412;-53
2022/06/08 08:50:09;;;;;;;24.27;7.75;;;;;;;25.84;50.89;100483.31;4987743;28;20046;-52
2022/06/08 08:52:41;;;;;;;9.57;6.82;;;;;;;25.91;50.79;100496.00;4995457;28;20050;-52
2022/06/08 08:55:19;;;;;;;22.42;7.85;;;;;;;26.02;50.70;100496.06;4995304;28;20050;-52
2022/06/08 08:57:59;;;;;;;8.57;6.22;;;;;;;26.07;50.15;100491.22;4994988;28;20141;-51
2022/06/08 09:00:38;;;;;;;10.38;6.45;;;;;;;26.15;49.94;100493.28;4994581;28;20050;-51
2022/06/08 09:03:22;;;;;;;7.78;6.05;;;;;;;26.22;49.96;100494.50;4994070;28;20064;-54
2022/06/08 09:05:51;;;;;;;7.78;6.43;;;;;;;26.33;49.70;100494.56;4995425;28;20046;-53
2022/06/08 09:08:21;;;;;;;8.93;6.32;;;;;;;26.48;49.65;100494.31;4994967;28;20527;-50
2022/06/08 09:10:50;;;;;;;7.55;6.25;;;;;;;26.62;49.31;100496.75;4995167;28;20116;-50
2022/06/08 09:13:23;;;;;;;51.53;10.75;;;;;;;26.79;49.01;100493.59;4995024;28;20095;-52
2022/06/08 09:15:52;;;;;;;10.40;6.68;;;;;;;26.87;48.84;100485.00;4994573;28;20068;-52
2022/06/08 09:18:29;;;;;;;6.80;6.00;;;;;;;26.97;48.50;100492.13;4995156;28;20054;-51
2022/06/08 09:20:56;;;;;;;10.38;7.00;;;;;;;27.02;48.32;100483.78;4995213;28;20104;-54
2022/06/08 09:23:29;;;;;;;7.43;5.68;;;;;;;27.01;47.78;100477.63;5007789;28;20061;-53
2022/06/08 09:26:07;;;;;;;6.05;5.40;;;;;;;27.07;47.23;100464.84;5014792;28;20063;-54
2022/06/08 09:28:37;;;;;;;7.22;5.60;;;;;;;27.15;47.48;100457.91;5014315;28;20077;-54
2022/06/08 09:31:04;;;;;;;9.18;5.03;;;;;;;27.25;46.97;100463.31;5014154;28;20064;-54
2022/06/08 09:33:35;;;;;;;7.88;4.63;;;;;;;27.36;46.31;100460.63;5014288;28;20478;-51
2022/06/08 09:36:06;;;;;;;5.38;4.85;;;;;;;27.48;45.98;100458.75;4980131;28;20076;-52
2022/06/08 09:38:40;;;;;;;6.32;4.80;;;;;;;27.55;45.40;100455.44;4980335;28;20058;-52
2022/06/08 09:41:15;;;;;;;8.90;4.85;;;;;;;27.53;45.13;100457.38;4994654;28;20365;-53
2022/06/08 09:44:05;;;;;;;7.78;4.35;;;;;;;27.54;45.06;100459.06;4994662;28;20124;-54
2022/06/08 09:52:29;;;;;;;5.25;3.70;;;;;;;27.50;44.85;100452.31;4994216;28;20053;-51
2022/06/08 09:55:09;;;;;;;12.00;3.75;;;;;;;27.52;44.13;100447.72;4994232;28;20062;-51
2022/06/08 09:57:45;;;;;;;17.95;4.93;;;;;;;27.61;44.08;100454.16;4994170;28;20058;-54
2022/06/08 10:00:27;;;;;;;6.28;3.63;;;;;;;27.63;43.93;100447.72;4993591;28;20669;-52
2022/06/08 10:03:35;;;;;;;5.72;3.70;;;;;;;27.67;42.75;100442.13;4994000;28;20054;-54
2022/06/08 10:06:11;;;;;;;4.43;3.47;;;;;;;27.66;42.88;100441.28;4958908;28;20124;-51
2022/06/08 10:08:49;;;;;;;6.15;3.05;;;;;;;27.63;42.11;100436.22;4993930;28;20054;-52
2022/06/08 10:11:38;;;;;;;3.78;2.60;;;;;;;27.61;42.46;100433.69;4987928;28;20058;-51
2022/06/08 10:14:13;;;;;;;4.10;2.80;;;;;;;27.65;42.22;100434.28;4978141;28;20146;-52
2022/06/08 10:16:47;;;;;;;7.88;3.50;;;;;;;27.64;41.03;100438.75;4974308;28;20129;-51
2022/06/08 10:19:20;;;;;;;18.13;3.30;;;;;;;27.62;41.81;100424.72;4973898;28;20495;-51
2022/06/08 10:21:50;;;;;;;3.92;3.00;;;;;;;27.64;41.90;100433.44;4973806;28;20057;-51
2022/06/08 10:24:20;;;;;;;10.07;3.78;;;;;;;27.68;42.02;100427.84;4973942;28;20361;-51
2022/06/08 10:26:53;;;;;;;3.92;3.17;;;;;;;27.68;41.70;100427.84;4974512;28;20046;-50
2022/06/08 10:29:26;;;;;;;5.28;3.35;;;;;;;27.66;41.81;100425.31;4974268;28;20058;-51
2022/06/08 10:31:59;;;;;;;2.92;2.60;;;;;;;27.62;41.87;100424.72;4989228;28;20718;-52
2022/06/08 10:34:31;;;;;;;8.18;3.22;;;;;;;27.55;41.92;100417.31;4993747;28;20051;-53
2022/06/08 10:37:04;;;;;;;4.65;3.10;;;;;;;27.47;42.23;100425.97;4973221;28;20109;-53
2022/06/08 10:39:33;;;;;;;5.75;3.70;;;;;;;27.33;42.26;100423.59;4973299;28;20090;-51
2022/06/08 10:42:42;;;;;;;7.82;3.45;;;;;;;27.24;42.10;100427.03;4973322;28;20086;-52
2022/06/08 10:45:35;;;;;;;5.07;3.40;;;;;;;27.13;41.89;100419.09;4973217;28;20066;-51
2022/06/08 10:48:34;;;;;;;7.88;3.47;;;;;;;27.06;42.31;100426.75;4972932;28;20059;-52
2022/06/08 10:51:37;;;;;;;5.90;3.10;;;;;;;27.01;42.47;100429.75;4972505;28;20091;-54
2022/06/08 10:54:54;;;;;;;14.48;3.78;;;;;;;26.93;42.39;100421.53;4974197;28;20177;-55
2022/06/08 10:57:49;;;;;;;4.63;3.28;;;;;;;26.96;42.55;100418.59;4974477;28;20054;-51
2022/06/08 11:00:29;;;;;;;15.57;4.80;;;;;;;26.99;42.74;100415.72;4956039;28;20120;-52
2022/06/08 11:03:02;;;;;;;6.18;4.38;;;;;;;26.97;42.54;100425.63;4996463;28;20058;-51
2022/06/08 11:05:33;;;;;;;3.75;3.30;;;;;;;26.92;42.87;100417.19;4997272;28;20051;-54
2022/06/08 11:08:18;;;;;;;5.90;3.35;;;;;;;26.85;42.53;100410.66;4996833;28;20583;-53
2022/06/08 11:10:54;;;;;;;;;;;;;;;26.73;42.60;100411.66;4997741;28;20133;-52
2022/06/08 11:13:30;;;;;;;6.03;3.70;;;;;;;26.73;43.29;100409.00;4996880;28;19984;-52
2022/06/08 11:16:01;;;;;;;7.57;4.10;;;;;;;26.68;43.31;100417.34;4997424;28;20057;-52
2022/06/08 11:18:38;;;;;;;7.80;4.00;;;;;;;26.63;43.04;100418.69;4997242;28;20054;-51
2022/06/08 11:21:31;;;;;;;8.20;4.20;;;;;;;26.57;43.13;100413.88;4997227;28;20137;-51
2022/06/08 11:24:02;;;;;;;51.83;7.32;;;;;;;26.50;43.71;100417.97;4996879;28;20046;-51
2022/06/08 11:29:46;;;;;;;7.63;3.90;;;;;;;26.45;42.96;100414.81;5091293;27;20900;-54
2022/06/08 11:32:43;;;;;;;5.65;3.92;;;;;;;26.37;42.97;100413.63;5090757;28;20818;-55
2022/06/08 11:35:31;;;;;;;17.90;5.38;;;;;;;26.31;42.99;100408.78;5090918;28;20136;-54
2022/06/08 11:38:12;;;;;;;7.53;3.88;;;;;;;26.31;43.79;100408.78;5090826;28;20455;-51
2022/06/08 11:40:38;;;;;;;4.75;4.15;;;;;;;26.38;43.99;100415.31;5090702;28;20052;-54
2022/06/08 11:43:27;;;;;;;6.85;3.90;;;;;;;26.45;42.82;100421.00;5090520;28;20435;-52
2022/06/08 11:45:58;;;;;;;7.75;3.65;;;;;;;26.53;42.78;100418.56;5090904;28;20060;-52
2022/06/08 11:48:27;;;;;;;9.93;4.07;;;;;;;26.63;42.97;100413.38;5090526;28;20675;-53
2022/06/08 11:50:56;;;;;;;7.88;4.20;;;;;;;26.72;42.73;100402.84;5090707;28;20052;-54
2022/06/08 11:53:28;;;;;;;4.72;3.40;;;;;;;26.78;42.24;100417.47;5090460;28;20364;-52
2022/06/08 11:56:07;;;;;;;6.88;3.40;;;;;;;26.75;42.11;100411.53;5090381;28;20135;-52
2022/06/08 11:58:36;;;;;;;4.00;3.40;;;;;;;26.74;41.85;100405.38;5090596;28;20060;-52